createdAt,value
2018-01-22T00:00:39.962Z,934.11
2018-01-22T00:01:39.949Z,934.06
2018-01-22T00:02:39.939Z,934.05
2018-01-22T00:16:39.837Z,933.80
2018-01-22T00:17:39.830Z,933.74
2018-01-22T00:18:39.821Z,933.72
2018-01-22T00:19:39.815Z,933.71
2018-01-22T00:20:39.808Z,933.67
2018-01-22T00:21:39.802Z,933.72
2018-01-22T00:22:39.792Z,933.68
2018-01-22T00:23:39.785Z,933.68
2018-01-22T00:24:39.776Z,933.67
2018-01-22T00:25:39.771Z,933.62
2018-01-22T00:26:39.761Z,933.63
2018-01-22T00:27:39.754Z,933.58
2018-01-22T00:28:39.748Z,933.53
2018-01-22T00:29:39.741Z,933.48
2018-01-22T00:30:39.735Z,933.48
2018-01-22T00:31:39.726Z,933.53
2018-01-22T00:32:39.719Z,933.55
2018-01-22T00:33:39.712Z,933.48
2018-01-22T00:34:39.704Z,933.39
2018-01-22T00:35:39.697Z,933.37
2018-01-22T00:36:39.689Z,933.42
2018-01-22T00:37:39.683Z,933.43
2018-01-22T00:38:39.673Z,933.41
2018-01-22T00:39:39.666Z,933.36
2018-01-22T00:40:39.659Z,933.30
2018-01-22T00:41:39.652Z,933.32
2018-01-22T00:42:39.689Z,933.31
2018-01-22T00:43:39.637Z,933.29
2018-01-22T00:44:39.630Z,933.31
2018-01-22T00:45:39.623Z,933.23
2018-01-22T00:46:39.615Z,933.24
2018-01-22T00:47:39.606Z,933.22
2018-01-22T00:48:39.602Z,933.18
2018-01-22T00:49:39.592Z,933.14
2018-01-22T00:50:39.584Z,933.13
2018-01-22T00:51:39.578Z,933.13
2018-01-22T00:52:39.570Z,933.12
2018-01-22T00:53:39.563Z,933.09
2018-01-22T00:54:39.555Z,933.06
2018-01-22T00:55:39.547Z,933.06
2018-01-22T00:56:39.541Z,933.10
2018-01-22T00:57:39.534Z,933.00
2018-01-22T00:58:39.525Z,933.07
2018-01-22T00:59:39.518Z,933.08
2018-01-22T01:00:39.511Z,933.08
2018-01-22T01:01:39.505Z,933.10
2018-01-22T01:02:39.496Z,933.09
2018-01-22T01:03:39.489Z,933.07
2018-01-22T01:04:39.482Z,933.04
2018-01-22T01:05:39.475Z,933.03
2018-01-22T01:06:39.467Z,933.07
2018-01-22T01:07:39.463Z,933.01
2018-01-22T01:08:39.452Z,932.96
2018-01-22T01:09:39.443Z,932.97
2018-01-22T01:10:39.437Z,933.02
2018-01-22T01:11:39.430Z,932.99
2018-01-22T01:12:39.421Z,932.95
2018-01-22T01:13:39.414Z,932.89
2018-01-22T01:14:39.407Z,932.92
2018-01-22T01:15:39.401Z,932.87
2018-01-22T01:16:39.392Z,932.87
2018-01-22T01:17:39.386Z,932.87
2018-01-22T01:18:39.377Z,932.80
2018-01-22T01:19:39.370Z,932.78
2018-01-22T01:20:39.363Z,932.79
2018-01-22T01:21:39.356Z,932.77
2018-01-22T01:22:39.348Z,932.76
2018-01-22T01:23:39.340Z,932.70
2018-01-22T01:24:39.334Z,932.66
2018-01-22T01:25:39.327Z,932.69
2018-01-22T01:26:39.318Z,932.63
2018-01-22T01:27:39.310Z,932.59
2018-01-22T01:28:39.304Z,932.49
2018-01-22T01:29:39.298Z,932.49
2018-01-22T01:30:39.290Z,932.48
2018-01-22T01:31:39.285Z,932.46
2018-01-22T01:32:39.274Z,932.45
2018-01-22T01:33:39.267Z,932.41
2018-01-22T01:34:39.259Z,932.39
2018-01-22T01:35:39.252Z,932.38
2018-01-22T01:36:39.246Z,932.34
2018-01-22T01:37:39.241Z,932.34
2018-01-22T01:38:39.234Z,932.30
2018-01-22T01:39:39.221Z,932.28
2018-01-22T01:40:39.215Z,932.26
2018-01-22T01:41:39.208Z,932.22
2018-01-22T01:42:39.200Z,932.17
2018-01-22T01:43:39.193Z,932.19
2018-01-22T01:44:39.186Z,932.14
2018-01-22T01:45:39.178Z,932.16
2018-01-22T01:46:39.169Z,932.19
2018-01-22T01:47:39.163Z,932.17
2018-01-22T01:48:39.154Z,932.14
2018-01-22T01:49:39.147Z,932.12
2018-01-22T01:50:39.140Z,932.10
2018-01-22T01:51:39.133Z,932.09
2018-01-22T01:52:39.125Z,932.05
2018-01-22T01:53:39.118Z,932.03
2018-01-22T01:54:39.110Z,932.03
2018-01-22T01:55:39.103Z,931.93
2018-01-22T01:56:39.096Z,931.92
2018-01-22T01:57:39.089Z,931.89
2018-01-22T01:58:39.081Z,931.89
2018-01-22T01:59:39.073Z,931.88
2018-01-22T02:00:39.066Z,931.84
2018-01-22T02:01:39.059Z,931.82
2018-01-22T02:02:39.049Z,931.81
2018-01-22T02:03:39.043Z,931.85
2018-01-22T02:04:39.037Z,931.83
2018-01-22T02:05:39.028Z,931.80
2018-01-22T02:06:39.026Z,931.71
2018-01-22T02:07:39.014Z,931.67
2018-01-22T02:08:39.006Z,931.66
2018-01-22T02:09:38.998Z,931.67
2018-01-22T02:10:38.990Z,931.60
2018-01-22T02:11:38.983Z,931.55
2018-01-22T02:12:38.976Z,931.51
2018-01-22T02:13:38.968Z,931.51
2018-01-22T02:14:38.960Z,931.49
2018-01-22T02:15:38.953Z,931.50
2018-01-22T02:16:38.947Z,931.44
2018-01-22T02:17:38.939Z,931.43
2018-01-22T02:18:38.931Z,931.40
2018-01-22T02:19:38.924Z,931.33
2018-01-22T02:20:38.915Z,931.32
2018-01-22T02:21:38.909Z,931.31
2018-01-22T02:22:38.901Z,931.35
2018-01-22T02:23:38.893Z,931.34
2018-01-22T02:24:38.887Z,931.36
2018-01-22T02:25:38.879Z,931.34
2018-01-22T02:26:38.870Z,931.32
2018-01-22T02:27:38.863Z,931.28
2018-01-22T02:28:38.857Z,931.36
2018-01-22T02:29:38.849Z,931.37
2018-01-22T02:30:38.840Z,931.37
2018-01-22T02:31:38.834Z,931.34
2018-01-22T02:32:38.825Z,931.34
2018-01-22T02:33:38.818Z,931.29
2018-01-22T02:34:38.810Z,931.22
2018-01-22T02:35:38.802Z,931.17
2018-01-22T02:36:38.795Z,931.17
2018-01-22T02:37:38.788Z,931.20
2018-01-22T02:38:38.780Z,931.23
2018-01-22T02:39:38.771Z,931.15
2018-01-22T02:40:38.764Z,931.11
2018-01-22T02:41:38.757Z,931.16
2018-01-22T02:42:38.749Z,931.18
2018-01-22T02:43:38.740Z,931.20
2018-01-22T02:44:38.733Z,931.18
2018-01-22T02:45:38.727Z,931.19
2018-01-22T02:46:38.719Z,931.16
2018-01-22T02:47:38.712Z,931.15
2018-01-22T02:48:38.704Z,931.15
2018-01-22T02:49:38.701Z,931.17
2018-01-22T02:50:38.688Z,931.14
2018-01-22T02:51:38.681Z,931.09
2018-01-22T02:52:38.673Z,931.10
2018-01-22T02:53:38.669Z,931.03
2018-01-22T02:54:38.657Z,931.04
2018-01-22T02:55:38.650Z,931.05
2018-01-22T02:56:38.644Z,931.05
2018-01-22T02:57:38.637Z,931.02
2018-01-22T02:58:38.631Z,931.05
2018-01-22T02:59:38.621Z,931.05
2018-01-22T03:00:38.614Z,931.03
2018-01-22T03:01:38.607Z,931.04
2018-01-22T03:02:38.599Z,931.04
2018-01-22T03:03:38.591Z,931.05
2018-01-22T03:04:38.584Z,931.08
2018-01-22T03:05:38.577Z,931.09
2018-01-22T03:06:38.569Z,931.10
2018-01-22T03:07:38.561Z,931.10
2018-01-22T03:08:38.554Z,931.12
2018-01-22T03:09:38.547Z,931.12
2018-01-22T03:10:38.539Z,931.16
2018-01-22T03:11:38.536Z,931.16
2018-01-22T03:12:38.525Z,931.12
2018-01-22T03:13:38.518Z,931.13
2018-01-22T03:14:38.510Z,931.09
2018-01-22T03:15:38.503Z,931.07
2018-01-22T03:16:38.495Z,931.07
2018-01-22T03:17:38.488Z,931.04
2018-01-22T03:18:38.480Z,930.98
2018-01-22T03:19:38.473Z,930.99
2018-01-22T03:20:38.465Z,930.98
2018-01-22T03:21:38.458Z,931.03
2018-01-22T03:22:38.449Z,930.99
2018-01-22T03:23:38.442Z,931.03
2018-01-22T03:24:38.435Z,931.04
2018-01-22T03:25:38.427Z,930.98
2018-01-22T03:26:38.420Z,930.98
2018-01-22T03:27:38.413Z,930.95
2018-01-22T03:28:38.407Z,931.00
2018-01-22T03:29:38.404Z,930.97
2018-01-22T03:30:38.392Z,930.95
2018-01-22T03:31:38.382Z,930.98
2018-01-22T03:32:38.375Z,930.97
2018-01-22T03:33:38.370Z,930.97
2018-01-22T03:34:38.361Z,931.02
2018-01-22T03:35:38.353Z,931.00
2018-01-22T03:36:38.345Z,931.01
2018-01-22T03:37:38.338Z,931.01
2018-01-22T03:38:38.329Z,930.97
2018-01-22T03:39:38.322Z,930.92
2018-01-22T03:40:38.321Z,930.99
2018-01-22T03:41:38.308Z,931.01
2018-01-22T03:42:38.301Z,930.99
2018-01-22T03:43:38.294Z,930.94
2018-01-22T03:44:38.286Z,930.93
2018-01-22T03:45:38.279Z,930.99
2018-01-22T03:46:38.270Z,930.93
2018-01-22T03:47:38.264Z,930.96
2018-01-22T03:48:38.255Z,930.91
2018-01-22T03:49:38.249Z,930.95
2018-01-22T03:50:38.241Z,931.02
2018-01-22T03:51:38.236Z,931.03
2018-01-22T03:52:38.227Z,930.92
2018-01-22T03:53:38.219Z,930.89
2018-01-22T03:54:38.211Z,930.94
2018-01-22T03:55:38.204Z,930.91
2018-01-22T03:56:38.196Z,930.92
2018-01-22T03:57:38.188Z,930.95
2018-01-22T03:58:38.181Z,930.95
2018-01-22T03:59:38.173Z,930.97
2018-01-22T04:00:38.167Z,930.86
2018-01-22T04:01:38.159Z,930.86
2018-01-22T04:02:38.151Z,930.82
2018-01-22T04:03:38.144Z,930.88
2018-01-22T04:04:38.137Z,930.90
2018-01-22T04:05:38.129Z,930.80
2018-01-22T04:06:38.122Z,930.87
2018-01-22T04:07:38.114Z,930.81
2018-01-22T04:08:38.106Z,930.86
2018-01-22T04:09:38.100Z,930.83
2018-01-22T04:10:38.091Z,930.80
2018-01-22T04:11:38.085Z,930.81
2018-01-22T04:12:38.076Z,930.76
2018-01-22T04:13:38.070Z,930.71
2018-01-22T04:14:38.062Z,930.67
2018-01-22T04:15:38.054Z,930.62
2018-01-22T04:16:38.048Z,930.68
2018-01-22T04:17:38.041Z,930.75
2018-01-22T04:18:38.031Z,930.74
2018-01-22T04:19:38.026Z,930.72
2018-01-22T04:20:38.019Z,930.72
2018-01-22T04:21:38.011Z,930.72
2018-01-22T04:22:38.004Z,930.73
2018-01-22T04:23:37.997Z,930.77
2018-01-22T04:24:37.990Z,930.70
2018-01-22T04:25:37.982Z,930.75
2018-01-22T04:26:37.973Z,930.81
2018-01-22T04:27:37.967Z,930.79
2018-01-22T04:28:37.960Z,930.76
2018-01-22T04:29:37.954Z,930.76
2018-01-22T04:30:37.944Z,930.76
2018-01-22T04:31:37.936Z,930.66
2018-01-22T04:32:37.930Z,930.63
2018-01-22T04:33:37.923Z,930.68
2018-01-22T04:34:37.915Z,930.67
2018-01-22T04:35:37.907Z,930.64
2018-01-22T04:36:37.901Z,930.59
2018-01-22T04:37:37.897Z,930.64
2018-01-22T04:38:37.886Z,930.63
2018-01-22T04:39:37.879Z,930.53
2018-01-22T04:40:37.872Z,930.50
2018-01-22T04:41:37.864Z,930.50
2018-01-22T04:42:37.855Z,930.45
2018-01-22T04:43:37.849Z,930.48
2018-01-22T04:44:37.841Z,930.52
2018-01-22T04:45:37.834Z,930.50
2018-01-22T04:46:37.826Z,930.51
2018-01-22T04:47:37.820Z,930.44
2018-01-22T04:48:37.812Z,930.46
2018-01-22T04:49:37.805Z,930.46
2018-01-22T04:50:37.797Z,930.40
2018-01-22T04:51:37.790Z,930.45
2018-01-22T04:52:37.784Z,930.40
2018-01-22T04:53:37.777Z,930.40
2018-01-22T04:54:37.769Z,930.43
2018-01-22T04:55:37.761Z,930.44
2018-01-22T04:56:37.756Z,930.45
2018-01-22T04:57:37.747Z,930.40
2018-01-22T04:58:37.739Z,930.31
2018-01-22T04:59:37.732Z,930.33
2018-01-22T05:00:37.726Z,930.27
2018-01-22T05:01:37.718Z,930.25
2018-01-22T05:02:37.710Z,930.27
2018-01-22T05:03:37.702Z,930.25
2018-01-22T05:04:37.696Z,930.22
2018-01-22T05:05:37.688Z,930.21
2018-01-22T05:06:37.680Z,930.20
2018-01-22T05:07:37.673Z,930.13
2018-01-22T05:08:37.667Z,930.11
2018-01-22T05:09:37.660Z,930.16
2018-01-22T05:10:37.652Z,930.17
2018-01-22T05:11:37.645Z,930.12
2018-01-22T05:12:37.636Z,930.19
2018-01-22T05:13:37.631Z,930.03
2018-01-22T05:14:37.622Z,930.04
2018-01-22T05:15:37.615Z,930.01
2018-01-22T05:16:37.608Z,929.98
2018-01-22T05:17:37.602Z,930.01
2018-01-22T05:18:37.593Z,929.93
2018-01-22T05:19:37.587Z,930.02
2018-01-22T05:20:37.578Z,930.02
2018-01-22T05:21:37.572Z,929.97
2018-01-22T05:22:37.564Z,929.94
2018-01-22T05:23:37.557Z,929.87
2018-01-22T05:24:37.549Z,929.90
2018-01-22T05:25:37.543Z,929.87
2018-01-22T05:26:37.535Z,929.91
2018-01-22T05:27:37.528Z,929.86
2018-01-22T05:28:37.520Z,929.90
2018-01-22T05:29:37.513Z,929.93
2018-01-22T05:30:37.506Z,929.90
2018-01-22T05:31:37.498Z,929.89
2018-01-22T05:32:37.491Z,929.87
2018-01-22T05:33:37.483Z,929.77
2018-01-22T05:34:37.476Z,929.83
2018-01-22T05:35:37.469Z,929.80
2018-01-22T05:36:37.461Z,929.66
2018-01-22T05:37:37.454Z,929.78
2018-01-22T05:38:37.446Z,929.82
2018-01-22T05:39:37.440Z,929.94
2018-01-22T05:40:37.433Z,929.85
2018-01-22T05:41:37.426Z,929.83
2018-01-22T05:42:37.417Z,929.80
2018-01-22T05:43:37.408Z,929.78
2018-01-22T05:44:37.401Z,929.74
2018-01-22T05:45:37.396Z,929.71
2018-01-22T05:46:37.388Z,929.71
2018-01-22T05:47:37.382Z,929.68
2018-01-22T05:48:37.373Z,929.65
2018-01-22T05:49:37.366Z,929.70
2018-01-22T05:50:37.357Z,929.64
2018-01-22T05:51:37.350Z,929.73
2018-01-22T05:52:37.345Z,929.69
2018-01-22T05:53:37.336Z,929.63
2018-01-22T05:54:37.329Z,929.57
2018-01-22T05:55:37.322Z,929.73
2018-01-22T05:56:37.315Z,929.72
2018-01-22T05:57:37.306Z,929.58
2018-01-22T05:58:37.299Z,929.65
2018-01-22T05:59:37.291Z,929.66
2018-01-22T06:00:37.285Z,929.66
2018-01-22T06:01:37.279Z,929.63
2018-01-22T06:02:37.270Z,929.64
2018-01-22T06:03:37.262Z,929.69
2018-01-22T06:04:37.255Z,929.70
2018-01-22T06:05:37.248Z,929.61
2018-01-22T06:06:37.241Z,929.75
2018-01-22T06:07:37.234Z,929.66
2018-01-22T06:08:37.227Z,929.71
2018-01-22T06:09:37.218Z,929.70
2018-01-22T06:10:37.211Z,929.69
2018-01-22T06:11:37.205Z,929.67
2018-01-22T06:12:37.198Z,929.67
2018-01-22T06:13:37.199Z,929.63
2018-01-22T06:14:37.183Z,929.73
2018-01-22T06:15:37.176Z,929.72
2018-01-22T06:16:37.169Z,929.62
2018-01-22T06:17:37.167Z,929.65
2018-01-22T06:18:37.156Z,929.63
2018-01-22T06:19:37.148Z,929.74
2018-01-22T06:20:37.141Z,929.58
2018-01-22T06:21:37.133Z,929.79
2018-01-22T06:22:37.125Z,929.68
2018-01-22T06:23:37.119Z,929.60
2018-01-22T06:24:37.115Z,929.69
2018-01-22T06:25:37.107Z,929.72
2018-01-22T06:26:37.099Z,929.74
2018-01-22T06:27:37.093Z,929.75
2018-01-22T06:28:37.086Z,929.79
2018-01-22T06:29:37.078Z,929.80
2018-01-22T06:30:37.073Z,929.76
2018-01-22T06:31:37.066Z,929.76
2018-01-22T06:32:37.059Z,929.78
2018-01-22T06:33:37.052Z,929.85
2018-01-22T06:34:37.045Z,929.85
2018-01-22T06:35:37.038Z,929.86
2018-01-22T06:36:37.033Z,929.89
2018-01-22T06:37:37.024Z,929.79
2018-01-22T06:38:37.018Z,929.82
2018-01-22T06:39:37.011Z,929.88
2018-01-22T06:40:37.004Z,929.97
2018-01-22T06:41:36.998Z,929.99
2018-01-22T06:42:36.991Z,930.02
2018-01-22T06:43:36.985Z,929.99
2018-01-22T06:44:36.978Z,929.92
2018-01-22T06:45:36.971Z,929.88
2018-01-22T06:46:36.963Z,929.89
2018-01-22T06:47:36.958Z,929.85
2018-01-22T06:48:36.951Z,929.86
2018-01-22T06:49:36.945Z,929.91
2018-01-22T06:50:36.938Z,929.97
2018-01-22T06:51:36.932Z,929.92
2018-01-22T06:52:36.930Z,929.93
2018-01-22T06:53:36.919Z,929.94
2018-01-22T06:54:36.912Z,930.02
2018-01-22T06:55:36.905Z,930.01
2018-01-22T06:56:36.899Z,930.00
2018-01-22T06:57:36.894Z,929.98
2018-01-22T06:58:36.885Z,930.03
2018-01-22T06:59:36.881Z,930.08
2018-01-22T07:00:36.874Z,930.11
2018-01-22T07:01:36.867Z,930.05
2018-01-22T07:02:36.861Z,929.99
2018-01-22T07:03:36.854Z,929.96
2018-01-22T07:04:36.850Z,930.03
2018-01-22T07:05:36.842Z,930.04
2018-01-22T07:06:36.836Z,930.08
2018-01-22T07:07:36.829Z,930.13
2018-01-22T07:08:36.824Z,930.24
2018-01-22T07:09:36.819Z,930.11
2018-01-22T07:10:36.810Z,930.22
2018-01-22T07:11:36.805Z,930.24
2018-01-22T07:12:36.798Z,930.19
2018-01-22T07:13:36.792Z,930.30
2018-01-22T07:14:36.786Z,930.33
2018-01-22T07:15:36.780Z,930.28
2018-01-22T07:16:36.780Z,930.05
2018-01-22T07:17:36.769Z,930.24
2018-01-22T07:18:36.762Z,930.30
2018-01-22T07:19:36.756Z,930.23
2018-01-22T07:20:36.751Z,930.30
2018-01-22T07:21:36.743Z,930.27
2018-01-22T07:22:36.736Z,930.22
2018-01-22T07:23:36.731Z,930.21
2018-01-22T07:24:36.726Z,930.31
2018-01-22T07:25:36.719Z,930.28
2018-01-22T07:26:36.714Z,930.35
2018-01-22T07:27:36.709Z,930.29
2018-01-22T07:28:36.703Z,930.40
2018-01-22T07:29:36.696Z,930.37
2018-01-22T07:30:36.690Z,930.29
2018-01-22T07:31:36.684Z,930.24
2018-01-22T07:32:36.679Z,930.25
2018-01-22T07:33:36.673Z,930.28
2018-01-22T07:34:36.666Z,930.33
2018-01-22T07:35:36.661Z,930.29
2018-01-22T07:36:36.655Z,930.39
2018-01-22T07:37:36.650Z,930.40
2018-01-22T07:38:36.643Z,930.29
2018-01-22T07:39:36.637Z,930.35
2018-01-22T07:40:36.632Z,930.46
2018-01-22T07:41:36.629Z,930.33
2018-01-22T07:42:36.620Z,930.30
2018-01-22T07:43:36.615Z,930.34
2018-01-22T07:44:36.609Z,930.31
2018-01-22T07:45:36.603Z,930.27
2018-01-22T07:46:36.597Z,930.32
2018-01-22T07:47:36.593Z,930.39
2018-01-22T07:48:36.586Z,930.48
2018-01-22T07:49:36.582Z,930.43
2018-01-22T07:50:36.574Z,930.44
2018-01-22T07:51:36.568Z,930.37
2018-01-22T07:52:36.563Z,930.40
2018-01-22T07:53:36.558Z,930.45
2018-01-22T07:54:36.550Z,930.46
2018-01-22T07:55:36.546Z,930.48
2018-01-22T07:56:36.541Z,930.53
2018-01-22T07:57:36.535Z,930.46
2018-01-22T07:58:36.529Z,930.36
2018-01-22T07:59:36.522Z,930.45
2018-01-22T08:00:36.517Z,930.40
2018-01-22T08:01:36.514Z,930.41
2018-01-22T08:02:36.506Z,930.39
2018-01-22T08:03:36.501Z,930.33
2018-01-22T08:04:36.494Z,930.37
2018-01-22T08:05:36.489Z,930.43
2018-01-22T08:06:36.484Z,930.37
2018-01-22T08:07:36.479Z,930.40
2018-01-22T08:08:36.472Z,930.41
2018-01-22T08:09:36.466Z,930.32
2018-01-22T08:10:36.462Z,930.30
2018-01-22T08:11:36.457Z,930.32
2018-01-22T08:12:36.451Z,930.31
2018-01-22T08:13:36.447Z,930.33
2018-01-22T08:14:36.440Z,930.33
2018-01-22T08:15:36.435Z,930.39
2018-01-22T08:16:36.430Z,930.46
2018-01-22T08:17:36.424Z,930.46
2018-01-22T08:18:36.418Z,930.39
2018-01-22T08:19:36.415Z,930.43
2018-01-22T08:20:36.407Z,930.41
2018-01-22T08:21:36.403Z,930.43
2018-01-22T08:22:36.397Z,930.38
2018-01-22T08:23:36.390Z,930.39
2018-01-22T08:24:36.387Z,930.52
2018-01-22T08:25:36.381Z,930.43
2018-01-22T08:26:36.374Z,930.40
2018-01-22T08:27:36.370Z,930.42
2018-01-22T08:28:36.365Z,930.43
2018-01-22T08:29:36.360Z,930.35
2018-01-22T08:30:36.354Z,930.41
2018-01-22T08:31:36.349Z,930.35
2018-01-22T08:32:36.345Z,930.38
2018-01-22T08:33:36.338Z,930.39
2018-01-22T08:34:36.339Z,930.46
2018-01-22T08:35:36.330Z,930.32
2018-01-22T08:36:36.323Z,930.20
2018-01-22T08:37:36.319Z,930.20
2018-01-22T08:38:36.313Z,930.28
2018-01-22T08:39:36.308Z,930.39
2018-01-22T08:40:36.302Z,930.40
2018-01-22T08:41:36.300Z,930.23
2018-01-22T08:42:36.293Z,930.29
2018-01-22T08:43:36.288Z,930.17
2018-01-22T08:44:36.283Z,930.27
2018-01-22T08:45:36.279Z,930.23
2018-01-22T08:46:36.273Z,930.25
2018-01-22T08:47:36.268Z,930.16
2018-01-22T08:48:36.262Z,930.19
2018-01-22T08:49:36.260Z,930.08
2018-01-22T08:50:36.253Z,930.09
2018-01-22T08:51:36.248Z,930.15
2018-01-22T08:52:36.242Z,930.15
2018-01-22T08:53:36.241Z,930.08
2018-01-22T08:54:36.231Z,930.14
2018-01-22T08:55:36.227Z,930.16
2018-01-22T08:56:36.223Z,930.16
2018-01-22T08:57:36.217Z,930.18
2018-01-22T08:58:36.213Z,930.20
2018-01-22T08:59:36.209Z,930.22
2018-01-22T09:00:36.203Z,930.18
2018-01-22T09:01:36.198Z,930.16
2018-01-22T09:02:36.192Z,930.15
2018-01-22T09:03:36.189Z,930.17
2018-01-22T09:04:36.184Z,930.21
2018-01-22T09:05:36.179Z,930.33
2018-01-22T09:06:36.174Z,930.22
2018-01-22T09:07:36.169Z,930.20
2018-01-22T09:08:36.164Z,930.23
2018-01-22T09:09:36.160Z,930.17
2018-01-22T09:10:36.154Z,930.24
2018-01-22T09:11:36.150Z,930.19
2018-01-22T09:12:36.146Z,930.23
2018-01-22T09:13:36.183Z,930.16
2018-01-22T09:14:36.135Z,930.22
2018-01-22T09:15:36.131Z,930.14
2018-01-22T09:16:36.127Z,930.18
2018-01-22T09:17:36.122Z,930.08
2018-01-22T09:18:36.117Z,930.07
2018-01-22T09:19:36.112Z,930.13
2018-01-22T09:20:36.107Z,930.15
2018-01-22T09:21:36.105Z,930.10
2018-01-22T09:22:36.097Z,930.11
2018-01-22T09:23:36.094Z,930.14
2018-01-22T09:24:36.089Z,930.12
2018-01-22T09:25:36.084Z,930.07
2018-01-22T09:26:36.080Z,930.10
2018-01-22T09:27:36.076Z,930.13
2018-01-22T09:28:36.089Z,930.04
2018-01-22T09:29:36.066Z,930.11
2018-01-22T09:30:36.062Z,930.02
2018-01-22T09:31:36.056Z,930.04
2018-01-22T09:32:36.053Z,930.05
2018-01-22T09:33:36.049Z,930.10
2018-01-22T09:34:36.044Z,930.18
2018-01-22T09:35:36.038Z,930.13
2018-01-22T09:36:36.035Z,930.17
2018-01-22T09:37:36.037Z,930.32
2018-01-22T09:38:36.025Z,930.28
2018-01-22T09:39:36.021Z,930.36
2018-01-22T09:40:36.017Z,930.45
2018-01-22T09:41:36.013Z,930.49
2018-01-22T09:42:36.008Z,930.49
2018-01-22T09:43:36.006Z,930.61
2018-01-22T09:44:36.000Z,930.59
2018-01-22T09:45:35.997Z,930.57
2018-01-22T09:46:35.990Z,930.63
2018-01-22T09:47:35.987Z,930.72
2018-01-22T09:48:35.984Z,930.61
2018-01-22T09:49:35.977Z,930.70
2018-01-22T09:50:35.971Z,930.60
2018-01-22T09:51:35.968Z,930.59
2018-01-22T09:52:35.964Z,930.70
2018-01-22T09:53:35.960Z,930.71
2018-01-22T09:54:35.955Z,930.68
2018-01-22T09:55:35.952Z,930.68
2018-01-22T09:56:35.948Z,930.67
2018-01-22T09:57:35.945Z,930.67
2018-01-22T09:58:35.937Z,930.77
2018-01-22T09:59:35.932Z,930.71
2018-01-22T10:00:35.930Z,930.63
2018-01-22T10:01:35.927Z,930.64
2018-01-22T10:02:35.926Z,930.69
2018-01-22T10:03:35.919Z,930.69
2018-01-22T10:04:35.914Z,930.74
2018-01-22T10:05:35.909Z,930.67
2018-01-22T10:06:35.904Z,930.64
2018-01-22T10:07:35.901Z,930.63
2018-01-22T10:08:35.898Z,930.67
2018-01-22T10:09:35.894Z,930.67
2018-01-22T10:10:35.889Z,930.64
2018-01-22T10:11:35.886Z,930.69
2018-01-22T10:12:35.882Z,930.66
2018-01-22T10:13:35.878Z,930.65
2018-01-22T10:14:35.872Z,930.58
2018-01-22T10:15:35.868Z,930.56
2018-01-22T10:16:35.866Z,930.56
2018-01-22T10:17:35.860Z,930.47
2018-01-22T10:18:35.857Z,930.49
2018-01-22T10:19:35.858Z,930.52
2018-01-22T10:20:35.854Z,930.52
2018-01-22T10:21:35.845Z,930.44
2018-01-22T10:22:35.841Z,930.52
2018-01-22T10:23:35.836Z,930.47
2018-01-22T10:24:35.834Z,930.49
2018-01-22T10:25:35.829Z,930.55
2018-01-22T10:26:35.825Z,930.48
2018-01-22T10:27:35.822Z,930.50
2018-01-22T10:28:35.819Z,930.53
2018-01-22T10:29:35.816Z,930.49
2018-01-22T10:30:35.811Z,930.45
2018-01-22T10:31:35.808Z,930.49
2018-01-22T10:32:35.803Z,930.35
2018-01-22T10:33:35.802Z,930.40
2018-01-22T10:34:35.795Z,930.43
2018-01-22T10:35:35.792Z,930.39
2018-01-22T10:36:35.789Z,930.41
2018-01-22T10:37:35.796Z,930.33
2018-01-22T10:38:35.780Z,930.36
2018-01-22T10:39:35.777Z,930.32
2018-01-22T10:40:35.773Z,930.29
2018-01-22T10:41:35.770Z,930.17
2018-01-22T10:42:35.766Z,930.23
2018-01-22T10:43:35.761Z,930.14
2018-01-22T10:44:35.758Z,930.12
2018-01-22T10:45:35.755Z,930.17
2018-01-22T10:46:35.751Z,930.21
2018-01-22T10:47:35.747Z,930.08
2018-01-22T10:48:35.744Z,930.05
2018-01-22T10:49:35.739Z,930.05
2018-01-22T10:50:35.736Z,930.09
2018-01-22T10:51:35.731Z,930.02
2018-01-22T10:52:35.728Z,930.11
2018-01-22T10:53:35.726Z,930.15
2018-01-22T10:54:35.722Z,930.10
2018-01-22T10:55:35.718Z,930.05
2018-01-22T10:56:35.715Z,930.16
2018-01-22T10:57:35.712Z,930.09
2018-01-22T10:58:35.707Z,930.05
2018-01-22T10:59:35.703Z,930.07
2018-01-22T11:00:35.701Z,929.98
2018-01-22T11:01:35.697Z,929.93
2018-01-22T11:02:35.694Z,929.92
2018-01-22T11:03:35.690Z,929.81
2018-01-22T11:04:35.686Z,929.77
2018-01-22T11:05:35.683Z,929.76
2018-01-22T11:06:35.677Z,929.59
2018-01-22T11:07:35.674Z,929.62
2018-01-22T11:08:35.671Z,929.53
2018-01-22T11:09:35.667Z,929.52
2018-01-22T11:10:35.662Z,929.53
2018-01-22T11:11:35.659Z,929.60
2018-01-22T11:12:35.656Z,929.55
2018-01-22T11:13:35.653Z,929.55
2018-01-22T11:14:35.653Z,929.55
2018-01-22T11:15:35.644Z,929.55
2018-01-22T11:16:35.643Z,929.54
2018-01-22T11:17:35.638Z,929.43
2018-01-22T11:18:35.633Z,929.46
2018-01-22T11:19:35.631Z,929.56
2018-01-22T11:20:35.633Z,929.65
2018-01-22T11:21:35.625Z,929.61
2018-01-22T11:22:35.619Z,929.62
2018-01-22T11:23:35.616Z,929.77
2018-01-22T11:24:35.613Z,929.73
2018-01-22T11:25:35.609Z,929.85
2018-01-22T11:26:35.605Z,929.74
2018-01-22T11:27:35.602Z,929.79
2018-01-22T11:28:35.602Z,929.71
2018-01-22T11:29:35.595Z,929.95
2018-01-22T11:30:35.591Z,929.90
2018-01-22T11:31:35.587Z,929.93
2018-01-22T11:32:35.583Z,929.86
2018-01-22T11:33:35.581Z,929.89
2018-01-22T11:34:35.575Z,929.88
2018-01-22T11:35:35.572Z,929.85
2018-01-22T11:36:35.568Z,929.91
2018-01-22T11:37:35.565Z,929.86
2018-01-22T11:38:35.560Z,929.80
2018-01-22T11:39:35.558Z,929.87
2018-01-22T11:40:35.556Z,929.96
2018-01-22T11:41:35.551Z,930.01
2018-01-22T11:42:35.546Z,929.94
2018-01-22T11:43:35.543Z,930.02
2018-01-22T11:44:35.539Z,930.02
2018-01-22T11:45:35.536Z,930.04
2018-01-22T11:46:35.536Z,929.94
2018-01-22T11:47:35.526Z,930.07
2018-01-22T11:48:35.525Z,930.09
2018-01-22T11:49:35.520Z,930.12
2018-01-22T11:50:35.520Z,930.17
2018-01-22T11:51:35.513Z,930.09
2018-01-22T11:52:35.508Z,930.14
2018-01-22T11:53:35.506Z,929.82
2018-01-22T11:54:35.502Z,929.95
2018-01-22T11:55:35.498Z,930.05
2018-01-22T11:56:35.495Z,929.79
2018-01-22T11:57:35.490Z,929.89
2018-01-22T11:58:35.486Z,929.97
2018-01-22T11:59:35.484Z,929.93
2018-01-22T12:00:35.481Z,929.94
2018-01-22T12:01:35.484Z,929.95
2018-01-22T12:02:35.472Z,930.00
2018-01-22T12:03:35.470Z,929.85
2018-01-22T12:04:35.465Z,929.94
2018-01-22T12:05:35.463Z,929.92
2018-01-22T12:06:35.458Z,929.84
2018-01-22T12:07:35.455Z,929.84
2018-01-22T12:08:35.452Z,929.86
2018-01-22T12:09:35.447Z,929.90
2018-01-22T12:10:35.443Z,929.90
2018-01-22T12:11:35.443Z,929.91
2018-01-22T12:12:35.436Z,929.89
2018-01-22T12:13:35.433Z,929.89
2018-01-22T12:14:35.430Z,929.80
2018-01-22T12:15:35.426Z,929.81
2018-01-22T12:16:35.426Z,929.75
2018-01-22T12:17:35.419Z,929.83
2018-01-22T12:18:35.415Z,929.79
2018-01-22T12:19:35.412Z,929.94
2018-01-22T12:20:35.409Z,929.86
2018-01-22T12:21:35.406Z,929.97
2018-01-22T12:22:35.401Z,929.91
2018-01-22T12:23:35.397Z,929.99
2018-01-22T12:24:35.393Z,930.02
2018-01-22T12:25:35.391Z,929.99
2018-01-22T12:26:35.387Z,930.11
2018-01-22T12:27:35.384Z,930.13
2018-01-22T12:28:35.380Z,930.08
2018-01-22T12:29:35.377Z,930.09
2018-01-22T12:30:35.372Z,930.10
2018-01-22T12:31:35.569Z,930.15
2018-01-22T12:32:35.367Z,930.15
2018-01-22T12:33:35.363Z,930.13
2018-01-22T12:34:35.365Z,930.17
2018-01-22T12:35:35.356Z,930.15
2018-01-22T12:36:35.353Z,930.12
2018-01-22T12:37:35.350Z,930.18
2018-01-22T12:38:35.345Z,930.14
2018-01-22T12:39:35.343Z,930.17
2018-01-22T12:40:35.339Z,930.16
2018-01-22T12:41:35.338Z,930.18